Terminal Aerodrome Forecast
Issued by NWS

Home | Current Version | Previous Version | Text Only | Print | Product List | Glossary On
Versions: 1 2 3 4 5 6 7 8 9 10 11 12 13 14 15 16 17 18 19
471
FTUS43 KGRR 250554 AAA
TAFJXN
TAF AMD
KJXN 250554Z 2506/2606 24010KT P6SM VCTS BKN040CB
     FM250900 26008KT P6SM BKN035 BKN200
     FM251400 30009KT P6SM SCT200
     FM260000 29006KT P6SM SKC=

USA.gov is the U.S. government's official web portal to all federal, state and local government web resources and services.